SVMI/CCS METAR and TAF weather

Enter ICAO airport designator
Station Type Date Time Source
SVMI METAR 2020/06/01 16:02 UTC NOAA

SVMI 011602Z AUTO 07011KT NCD ///// Q1016


Station Type Date Time Source
SVMI Decoded METAR 2020/06/01 16:02 UTC NOAA

Caracas / Maiquetia Aerop. Intl. Simon Bolivar, Venezuela (SVMI) 10-36N 066-59W 48M
Jun 01, 2020 - 12:02 PM EDT / 2020.06.01 1602 UTC
Wind: from the ENE (070 degrees) at 13 MPH (11 KT):0
Pressure (altimeter): 30.00 in. Hg (1016 hPa)
ob: SVMI 011602Z AUTO 07011KT NCD ///// Q1016
cycle: 16

Station Type Date Time Source
SVMI TAF 2020/06/01 18:03 UTC NOAA

TAF SVMI 011600Z 0118/0218 07005KT 9999 SCT016 SCT100 TX28/18Z TN23/09Z
BECMG 0118/0122 09006KT 9999 BKN016

Example: see airport list